Time;durP1;ratioP1;P1;durP2;ratioP2;P2;SDS_P1;SDS_P2;PMS_P1;PMS_P2;Temp;Humidity;BMP_temperature;BMP_pressure;BME280_temperature;BME280_humidity;BME280_pressure;Samples;Min_cycle;Max_cycle;Signal;HPM_P1;HPM_P2
2023/11/14 00:00:37;;;;;;;28.57;6.43;;;11.80;56.70;;;;;;5055524;28;20464;-77
2023/11/14 00:03:04;;;;;;;32.00;6.00;;;11.70;57.60;;;;;;5051234;28;20393;-77
2023/11/14 00:05:34;;;;;;;35.30;6.78;;;11.70;58.10;;;;;;5051572;28;20400;-77
2023/11/14 00:08:00;;;;;;;39.47;7.32;;;11.70;58.30;;;;;;5061048;28;20389;-75
2023/11/14 00:10:25;;;;;;;37.20;6.50;;;11.70;58.60;;;;;;5069596;28;20447;-75
2023/11/14 00:12:51;;;;;;;36.17;6.45;;;11.60;58.70;;;;;;5064939;28;20704;-77
2023/11/14 00:15:18;;;;;;;39.35;6.88;;;11.60;59.10;;;;;;5055507;28;20389;-77
2023/11/14 00:17:44;;;;;;;43.00;6.85;;;11.60;58.80;;;;;;5050799;28;20385;-77
2023/11/14 00:20:10;;;;;;;32.08;6.50;;;11.50;59.40;;;;;;5050858;28;20929;-76
2023/11/14 00:22:38;;;;;;;36.72;6.80;;;11.50;59.60;;;;;;5052102;28;20385;-76
2023/11/14 00:25:04;;;;;;;33.83;6.75;;;11.60;59.10;;;;;;5054756;28;20707;-77
2023/11/14 00:27:30;;;;;;;31.43;6.10;;;11.60;58.70;;;;;;5069479;28;20385;-77
2023/11/14 00:29:56;;;;;;;36.53;6.63;;;11.60;58.80;;;;;;5066969;28;20397;-77
2023/11/14 00:32:22;;;;;;;36.90;6.82;;;11.60;58.80;;;;;;5061836;28;20876;-76
2023/11/14 00:34:48;;;;;;;39.47;7.45;;;11.70;58.90;;;;;;5060861;28;20404;-75
2023/11/14 00:37:15;;;;;;;35.38;6.80;;;11.80;57.60;;;;;;5058847;28;20391;-77
2023/11/14 00:39:40;;;;;;;41.65;6.85;;;11.90;56.50;;;;;;5057072;28;20385;-77
2023/11/14 00:42:07;;;;;;;39.20;7.17;;;11.90;56.20;;;;;;5059504;28;20388;-76
2023/11/14 00:44:33;;;;;;;38.17;6.50;;;11.90;56.30;;;;;;5061905;28;20381;-75
2023/11/14 00:46:59;;;;;;;33.70;6.43;;;12.00;56.10;;;;;;5060585;28;20412;-78
2023/11/14 00:49:24;;;;;;;41.65;7.45;;;12.00;55.60;;;;;;5059950;28;20986;-77
2023/11/14 00:51:50;;;;;;;39.85;7.07;;;12.00;56.00;;;;;;5057969;28;20389;-77
2023/11/14 00:54:15;;;;;;;31.30;6.15;;;11.90;56.00;;;;;;5057523;28;20412;-77
2023/11/14 00:56:41;;;;;;;41.75;7.20;;;11.80;56.50;;;;;;5054339;28;20386;-77
2023/11/14 00:59:08;;;;;;;30.42;6.60;;;11.80;56.70;;;;;;5055482;28;20469;-77
2023/11/14 01:01:34;;;;;;;26.40;6.00;;;11.80;56.80;;;;;;5056581;28;20385;-77
2023/11/14 01:03:59;;;;;;;40.13;7.40;;;11.80;56.40;;;;;;5054610;28;20744;-77
2023/11/14 01:06:26;;;;;;;35.47;7.03;;;11.80;56.20;;;;;;5061696;28;20397;-76
2023/11/14 01:08:52;;;;;;;38.83;7.00;;;12.00;55.40;;;;;;5062418;28;20382;-77
2023/11/14 01:11:17;;;;;;;38.40;7.00;;;12.00;54.70;;;;;;5058981;28;20472;-77
2023/11/14 01:13:44;;;;;;;35.17;6.93;;;12.10;54.30;;;;;;5052936;28;20839;-76
2023/11/14 01:16:14;;;;;;;38.10;6.90;;;12.10;53.90;;;;;;5054100;28;20476;-76
2023/11/14 01:18:40;;;;;;;43.28;6.82;;;12.10;54.20;;;;;;5055358;28;20473;-77
2023/11/14 01:21:06;;;;;;;43.50;7.20;;;12.10;54.70;;;;;;5064760;28;20393;-77
2023/11/14 01:23:32;;;;;;;32.17;6.63;;;12.10;54.30;;;;;;5058958;28;20392;-77
2023/11/14 01:25:57;;;;;;;39.00;7.10;;;12.10;54.80;;;;;;5061321;28;20455;-76
2023/11/14 01:28:23;;;;;;;39.80;7.60;;;12.10;54.60;;;;;;5054739;28;20397;-76
2023/11/14 01:30:48;;;;;;;41.47;7.40;;;12.10;54.80;;;;;;5054771;28;20476;-77
2023/11/14 01:33:14;;;;;;;42.37;7.27;;;12.10;54.30;;;;;;5055695;28;20794;-76
2023/11/14 01:35:39;;;;;;;39.60;6.93;;;12.10;54.80;;;;;;5053535;28;20417;-77
2023/11/14 01:38:05;;;;;;;42.15;7.68;;;12.10;54.80;;;;;;5055423;28;20376;-75
2023/11/14 01:40:31;;;;;;;42.70;7.30;;;12.00;55.40;;;;;;5055492;28;20385;-77
2023/11/14 01:43:01;;;;;;;41.72;6.45;;;11.90;56.50;;;;;;5056205;28;20389;-75
2023/11/14 01:45:27;;;;;;;37.80;6.77;;;11.90;56.90;;;;;;5058792;28;20432;-76
2023/11/14 01:47:53;;;;;;;36.25;6.95;;;11.80;56.60;;;;;;5056036;28;20682;-77
2023/11/14 01:50:19;;;;;;;39.67;7.13;;;11.90;56.80;;;;;;5062660;28;20739;-76
2023/11/14 01:52:45;;;;;;;34.25;7.28;;;11.90;56.50;;;;;;5058481;28;20385;-77
2023/11/14 01:55:11;;;;;;;41.10;6.90;;;11.90;56.30;;;;;;5060485;28;20409;-75
2023/11/14 01:57:37;;;;;;;41.17;6.78;;;11.90;56.50;;;;;;5063849;28;20760;-77
2023/11/14 02:00:03;;;;;;;41.20;8.03;;;11.80;56.80;;;;;;5062270;28;20392;-77
2023/11/14 02:02:28;;;;;;;44.45;7.30;;;11.80;57.60;;;;;;5062522;28;20396;-77
2023/11/14 02:04:56;;;;;;;39.60;7.10;;;11.70;58.00;;;;;;5060415;28;20464;-76
2023/11/14 02:07:23;;;;;;;42.63;7.45;;;11.60;58.70;;;;;;5059034;22;20438;-72
2023/11/14 02:09:50;;;;;;;37.58;6.63;;;11.70;58.10;;;;;;5032248;28;20394;-71
2023/11/14 02:12:15;;;;;;;53.03;7.53;;;11.60;58.40;;;;;;5032226;28;20395;-71
2023/11/14 02:14:41;;;;;;;35.07;7.03;;;11.70;58.30;;;;;;5031912;28;20485;-71
2023/11/14 02:17:14;;;;;;;39.90;6.97;;;11.70;57.80;;;;;;5030740;28;20876;-71
2023/11/14 02:19:40;;;;;;;34.95;6.43;;;11.70;57.70;;;;;;5032265;28;20390;-71
2023/11/14 02:22:05;;;;;;;37.67;6.53;;;11.60;57.80;;;;;;5031938;28;20383;-71
2023/11/14 02:24:33;;;;;;;35.25;7.35;;;11.60;58.40;;;;;;5032519;28;20471;-72
2023/11/14 02:26:59;;;;;;;35.45;7.03;;;11.50;58.70;;;;;;5032117;28;20387;-71
2023/11/14 02:29:25;;;;;;;42.25;7.47;;;11.50;59.60;;;;;;5032303;28;20387;-71
2023/11/14 02:31:51;;;;;;;41.03;7.75;;;11.50;58.70;;;;;;5032316;28;20383;-71
2023/11/14 02:34:17;;;;;;;34.60;6.38;;;11.60;59.00;;;;;;5032033;28;20473;-71
2023/11/14 02:36:43;;;;;;;42.78;6.43;;;11.60;58.30;;;;;;5031446;28;20414;-71
2023/11/14 02:39:08;;;;;;;37.55;6.45;;;11.60;58.00;;;;;;5030413;28;20757;-71
2023/11/14 02:41:37;;;;;;;41.40;6.70;;;11.60;57.80;;;;;;5031450;28;20466;-71
2023/11/14 02:44:03;;;;;;;33.72;5.80;;;11.60;57.80;;;;;;5031245;28;20386;-71
2023/11/14 02:46:29;;;;;;;39.30;7.05;;;11.70;57.90;;;;;;5031040;28;20883;-71
2023/11/14 02:48:55;;;;;;;36.97;6.57;;;11.70;57.80;;;;;;5031376;28;20387;-71
2023/11/14 02:51:21;;;;;;;35.10;6.90;;;11.70;57.60;;;;;;5031584;28;20394;-71
2023/11/14 02:53:46;;;;;;;41.43;7.47;;;11.70;57.50;;;;;;5031311;28;20448;-71
2023/11/14 02:56:12;;;;;;;36.22;7.35;;;11.80;57.20;;;;;;5031505;28;20391;-71
2023/11/14 02:58:38;;;;;;;47.45;7.10;;;11.80;56.70;;;;;;5031205;28;20390;-71
2023/11/14 03:01:04;;;;;;;33.80;7.10;;;11.80;56.80;;;;;;5031416;28;20466;-71
2023/11/14 03:03:30;;;;;;;38.13;7.07;;;11.80;56.80;;;;;;5031275;28;20532;-72
2023/11/14 03:05:56;;;;;;;37.20;7.40;;;11.70;57.80;;;;;;5030856;28;20419;-71
2023/11/14 03:08:22;;;;;;;36.50;7.32;;;11.70;57.70;;;;;;5031121;28;20397;-71
2023/11/14 03:10:48;;;;;;;40.03;7.63;;;11.60;58.30;;;;;;5031007;28;20431;-71
2023/11/14 03:13:13;;;;;;;31.63;6.72;;;11.60;58.80;;;;;;5031003;28;20531;-71
2023/11/14 03:15:41;;;;;;;34.72;6.85;;;11.70;58.30;;;;;;5030611;28;20395;-71
2023/11/14 03:18:06;;;;;;;35.53;7.50;;;11.60;58.50;;;;;;5030702;28;20478;-71
2023/11/14 03:20:35;;;;;;;40.70;6.60;;;11.60;59.10;;;;;;5030847;28;20941;-71
2023/11/14 03:23:01;;;;;;;33.42;7.05;;;11.60;59.00;;;;;;5030904;28;20433;-71
2023/11/14 03:25:26;;;;;;;34.53;6.85;;;11.50;59.60;;;;;;5030900;28;20383;-71
2023/11/14 03:27:52;;;;;;;38.42;7.70;;;11.50;60.20;;;;;;5030623;28;20394;-71
2023/11/14 03:30:19;;;;;;;39.05;7.32;;;11.40;60.80;;;;;;5030973;28;20419;-71
2023/11/14 03:32:44;;;;;;;33.10;7.53;;;11.40;60.30;;;;;;5030637;28;20379;-71
2023/11/14 03:35:11;;;;;;;35.00;7.32;;;11.40;60.90;;;;;;5030447;28;20437;-71
2023/11/14 03:37:36;;;;;;;34.83;6.93;;;11.40;60.60;;;;;;5030656;28;20391;-71
2023/11/14 03:40:04;;;;;;;39.60;7.32;;;11.50;59.80;;;;;;5030545;28;20379;-72
2023/11/14 03:42:30;;;;;;;37.83;7.97;;;11.50;59.80;;;;;;5030623;28;20387;-72
2023/11/14 03:44:56;;;;;;;38.53;7.50;;;11.50;60.30;;;;;;5030472;28;20390;-72
2023/11/14 03:47:21;;;;;;;44.60;7.80;;;11.50;60.80;;;;;;5030462;28;20754;-72
2023/11/14 03:49:47;;;;;;;51.03;8.50;;;11.50;60.80;;;;;;5030314;28;20383;-72
2023/11/14 03:52:12;;;;;;;42.10;7.13;;;11.40;60.90;;;;;;5030506;28;20486;-72
2023/11/14 03:54:38;;;;;;;41.83;6.85;;;11.40;61.60;;;;;;5030229;28;20403;-72
2023/11/14 03:57:04;;;;;;;43.40;7.75;;;11.40;62.30;;;;;;5030308;28;20462;-72
2023/11/14 03:59:29;;;;;;;32.25;6.07;;;11.30;62.40;;;;;;5030300;28;20467;-72
2023/11/14 04:01:55;;;;;;;37.10;7.10;;;11.40;62.20;;;;;;5030126;28;20379;-72
2023/11/14 04:04:21;;;;;;;41.37;6.33;;;11.40;62.10;;;;;;5030601;28;20924;-72
2023/11/14 04:06:46;;;;;;;46.20;7.40;;;11.40;61.90;;;;;;5030121;28;20448;-72
2023/11/14 04:09:12;;;;;;;34.03;6.77;;;11.40;62.20;;;;;;5030229;28;20577;-72
2023/11/14 04:11:53;;;;;;;37.43;7.37;;;11.40;61.50;;;;;;5030331;28;20395;-72
2023/11/14 04:14:18;;;;;;;46.67;7.25;;;11.40;61.40;;;;;;5030204;28;20451;-72
2023/11/14 04:16:44;;;;;;;41.27;6.70;;;11.50;61.40;;;;;;5030057;28;20862;-72
2023/11/14 04:19:10;;;;;;;26.03;6.50;;;11.50;61.30;;;;;;5030042;28;20379;-72
2023/11/14 04:21:36;;;;;;;33.50;6.38;;;11.40;61.10;;;;;;5029961;28;20908;-72
2023/11/14 04:24:01;;;;;;;39.78;6.30;;;11.50;61.40;;;;;;5030015;28;20391;-72
2023/11/14 04:26:27;;;;;;;35.57;6.27;;;11.60;60.90;;;;;;5029956;28;20391;-72
2023/11/14 04:28:53;;;;;;;36.83;5.90;;;11.50;60.50;;;;;;5029845;28;20411;-73
2023/11/14 04:31:19;;;;;;;33.50;6.97;;;11.60;59.60;;;;;;5030029;28;20455;-72
2023/11/14 04:33:44;;;;;;;37.23;7.40;;;11.70;58.80;;;;;;5029922;28;20407;-72
2023/11/14 04:36:10;;;;;;;30.50;6.60;;;11.80;58.50;;;;;;5029948;28;20741;-72
2023/11/14 04:38:36;;;;;;;34.72;6.32;;;11.80;58.40;;;;;;5029734;28;20917;-72
2023/11/14 04:41:03;;;;;;;33.88;6.50;;;11.80;58.20;;;;;;5029978;28;20854;-72
2023/11/14 04:43:28;;;;;;;36.30;6.90;;;11.80;58.50;;;;;;5012217;28;20395;-72
2023/11/14 04:45:54;;;;;;;28.47;6.43;;;11.70;58.90;;;;;;5029907;28;20727;-72
2023/11/14 04:48:19;;;;;;;35.33;6.47;;;11.70;59.40;;;;;;5030035;28;20941;-72
2023/11/14 04:50:45;;;;;;;32.17;7.07;;;11.60;59.50;;;;;;5029980;28;20394;-72
2023/11/14 04:53:11;;;;;;;32.35;6.30;;;11.60;60.40;;;;;;5029989;28;20415;-72
2023/11/14 04:55:36;;;;;;;30.70;6.40;;;11.50;60.80;;;;;;5028994;28;20746;-73
2023/11/14 04:58:02;;;;;;;40.17;6.75;;;11.50;61.10;;;;;;5030577;28;20402;-71
2023/11/14 05:00:29;;;;;;;38.75;7.25;;;11.60;60.40;;;;;;5029967;28;20382;-71
2023/11/14 05:02:54;;;;;;;41.58;7.78;;;11.70;60.20;;;;;;5029711;28;20390;-71
2023/11/14 05:05:20;;;;;;;38.92;6.47;;;11.60;60.30;;;;;;5029835;28;20818;-71
2023/11/14 05:07:47;;;;;;;34.05;6.45;;;11.60;60.80;;;;;;5027940;28;20431;-71
2023/11/14 05:10:13;;;;;;;41.53;7.75;;;11.60;61.00;;;;;;5029717;28;20469;-72
2023/11/14 05:12:39;;;;;;;38.45;6.25;;;11.70;60.50;;;;;;5030721;28;20390;-71
2023/11/14 05:15:07;;;;;;;35.80;7.18;;;11.70;59.60;;;;;;5033521;28;20480;-71
2023/11/14 05:17:33;;;;;;;37.60;6.55;;;11.70;60.00;;;;;;5031792;28;20387;-71
2023/11/14 05:19:59;;;;;;;53.97;8.13;;;11.70;60.30;;;;;;5033131;28;20391;-71
2023/11/14 05:22:25;;;;;;;40.35;6.72;;;11.70;60.40;;;;;;5033122;28;20383;-71
2023/11/14 05:24:50;;;;;;;32.80;6.53;;;11.80;59.60;;;;;;5032979;28;20394;-72
2023/11/14 05:27:16;;;;;;;38.67;7.43;;;11.80;59.50;;;;;;5032709;28;20398;-71
2023/11/14 05:29:41;;;;;;;37.97;7.53;;;11.90;58.70;;;;;;5033011;28;20387;-71
2023/11/14 05:32:09;;;;;;;48.83;7.10;;;12.00;58.10;;;;;;5033030;28;20391;-72
2023/11/14 05:34:34;;;;;;;38.83;6.50;;;11.90;58.50;;;;;;5033131;28;20898;-72
2023/11/14 05:37:00;;;;;;;37.75;7.10;;;12.00;58.30;;;;;;5032635;28;20398;-72
2023/11/14 05:39:25;;;;;;;34.20;6.60;;;11.90;58.50;;;;;;5032666;28;20458;-72
2023/11/14 05:41:51;;;;;;;37.33;6.70;;;11.90;58.20;;;;;;5032914;28;20380;-72
2023/11/14 05:44:16;;;;;;;36.47;6.60;;;11.90;58.40;;;;;;5032834;28;20391;-72
2023/11/14 05:46:43;;;;;;;36.67;7.40;;;11.80;59.20;;;;;;5032431;28;20401;-72
2023/11/14 05:49:09;;;;;;;42.23;7.20;;;11.80;59.70;;;;;;5032353;28;20705;-72
2023/11/14 05:51:35;;;;;;;36.93;6.90;;;11.80;60.10;;;;;;5033103;28;20406;-72
2023/11/14 05:54:00;;;;;;;35.43;6.50;;;11.60;61.00;;;;;;5032620;28;20414;-71
2023/11/14 05:56:26;;;;;;;35.72;7.20;;;11.60;61.20;;;;;;5032592;28;20466;-71
2023/11/14 05:58:51;;;;;;;32.70;6.87;;;11.60;61.50;;;;;;5032338;28;20433;-72
2023/11/14 06:01:17;;;;;;;36.77;7.50;;;11.60;61.40;;;;;;5031052;28;20458;-72
2023/11/14 06:03:43;;;;;;;35.67;7.13;;;11.60;61.60;;;;;;5032274;28;21008;-72
2023/11/14 06:06:08;;;;;;;26.53;6.53;;;11.60;62.30;;;;;;5031834;28;20753;-72
2023/11/14 06:08:34;;;;;;;39.35;7.63;;;11.60;61.50;;;;;;5031651;28;20401;-71
2023/11/14 06:11:00;;;;;;;44.58;7.10;;;11.70;61.30;;;;;;5031991;28;20727;-72
2023/11/14 06:13:25;;;;;;;39.08;7.20;;;11.70;61.30;;;;;;5031781;28;20844;-72
2023/11/14 06:15:52;;;;;;;25.67;6.45;;;11.70;61.10;;;;;;5031820;28;20949;-72
2023/11/14 06:18:17;;;;;;;38.53;7.70;;;11.70;61.20;;;;;;5031925;28;20478;-71
2023/11/14 06:20:43;;;;;;;39.33;7.17;;;11.70;61.40;;;;;;5031910;28;20391;-71
2023/11/14 06:23:08;;;;;;;38.07;7.17;;;11.70;61.80;;;;;;5031690;28;20844;-71
2023/11/14 06:25:34;;;;;;;39.47;7.00;;;11.70;62.20;;;;;;5031419;28;20382;-72
2023/11/14 06:27:59;;;;;;;35.90;7.65;;;11.70;62.00;;;;;;5031318;28;20383;-72
2023/11/14 06:30:25;;;;;;;38.47;6.53;;;11.80;60.50;;;;;;5031275;28;20805;-72
2023/11/14 06:32:50;;;;;;;41.58;6.30;;;11.90;59.60;;;;;;5031476;28;20378;-72
2023/11/14 06:35:16;;;;;;;43.03;7.20;;;12.00;59.40;;;;;;5031370;28;20506;-72
2023/11/14 06:37:44;;;;;;;35.23;6.77;;;12.00;59.00;;;;;;5031008;28;20482;-72
2023/11/14 06:40:11;;;;;;;35.30;6.03;;;12.00;59.20;;;;;;5030443;28;20459;-72
2023/11/14 06:42:38;;;;;;;31.37;6.77;;;12.00;59.20;;;;;;5031244;28;20383;-71
2023/11/14 06:45:07;;;;;;;33.28;6.60;;;12.00;59.60;;;;;;5030761;28;20383;-71
2023/11/14 06:47:32;;;;;;;43.28;6.93;;;12.00;58.80;;;;;;5029387;28;20391;-71
2023/11/14 06:49:58;;;;;;;40.27;7.10;;;12.00;59.00;;;;;;5029626;28;20401;-71
2023/11/14 06:52:24;;;;;;;44.40;7.40;;;12.00;59.10;;;;;;5032130;28;20382;-72
2023/11/14 06:54:49;;;;;;;36.97;6.60;;;11.90;59.60;;;;;;5030872;28;20497;-71
2023/11/14 06:57:15;;;;;;;32.57;6.00;;;11.90;60.00;;;;;;5031298;28;20381;-72
2023/11/14 06:59:40;;;;;;;43.47;7.78;;;11.90;59.80;;;;;;5031087;28;20758;-72
2023/11/14 07:02:08;;;;;;;31.05;7.03;;;11.90;59.80;;;;;;5031313;28;20383;-72
2023/11/14 07:04:36;;;;;;;32.45;6.10;;;11.90;60.10;;;;;;5031254;28;20457;-72
2023/11/14 07:07:03;;;;;;;41.03;6.47;;;11.90;59.10;;;;;;5030831;28;20870;-72
2023/11/14 07:09:29;;;;;;;49.78;8.18;;;11.90;59.50;;;;;;5030921;28;20873;-72
2023/11/14 07:11:54;;;;;;;40.88;7.50;;;11.90;59.80;;;;;;5030783;28;20387;-72
2023/11/14 07:14:22;;;;;;;39.88;6.43;;;11.90;59.70;;;;;;5030963;28;20402;-72
2023/11/14 07:16:48;;;;;;;38.58;7.00;;;12.00;59.40;;;;;;5031065;28;20383;-73
2023/11/14 07:19:14;;;;;;;33.85;6.40;;;12.00;58.70;;;;;;5030671;28;20927;-71
2023/11/14 07:21:40;;;;;;;33.75;6.82;;;12.10;58.00;;;;;;5030807;28;20920;-72
2023/11/14 07:24:06;;;;;;;34.30;6.32;;;12.20;58.10;;;;;;5030486;28;20479;-72
2023/11/14 07:26:31;;;;;;;36.65;6.75;;;12.30;57.10;;;;;;5030776;28;20406;-72
2023/11/14 07:28:57;;;;;;;35.40;6.60;;;12.40;56.80;;;;;;5030650;28;20391;-72
2023/11/14 07:31:22;;;;;;;31.88;6.50;;;12.50;55.70;;;;;;5030924;28;20410;-72
2023/11/14 07:33:48;;;;;;;40.95;6.78;;;12.50;55.40;;;;;;5030576;28;20402;-72
2023/11/14 07:36:14;;;;;;;43.33;6.50;;;12.50;55.20;;;;;;5029874;28;20742;-72
2023/11/14 07:38:42;;;;;;;41.83;6.67;;;12.50;55.50;;;;;;5028849;28;20395;-72
2023/11/14 07:41:10;;;;;;;35.40;6.35;;;12.50;55.40;;;;;;5030057;28;20409;-72
2023/11/14 07:43:37;;;;;;;32.03;6.28;;;12.50;54.90;;;;;;5030585;28;20399;-72
2023/11/14 07:46:07;;;;;;;34.10;6.22;;;12.50;55.50;;;;;;5024290;28;21045;-72
2023/11/14 07:48:33;;;;;;;38.80;6.63;;;12.40;56.00;;;;;;5017261;28;21030;-71
2023/11/14 07:50:59;;;;;;;37.38;6.35;;;12.40;56.30;;;;;;5015212;28;20398;-73
2023/11/14 07:53:25;;;;;;;40.58;7.38;;;12.40;56.80;;;;;;5030146;28;20457;-73
2023/11/14 07:55:53;;;;;;;32.55;6.13;;;12.30;58.10;;;;;;5017263;28;20518;-73
2023/11/14 07:58:20;;;;;;;37.80;6.82;;;12.30;57.10;;;;;;5026765;28;20431;-73
2023/11/14 08:00:46;;;;;;;35.00;6.53;;;12.50;56.20;;;;;;5030051;28;20393;-73
2023/11/14 08:03:12;;;;;;;34.50;6.00;;;12.60;55.50;;;;;;5029748;28;20381;-70
2023/11/14 08:05:40;;;;;;;29.65;6.35;;;12.60;55.50;;;;;;5025293;28;20407;-74
2023/11/14 08:08:10;;;;;;;33.20;7.50;;;12.60;54.90;;;;;;5029073;28;20410;-71
2023/11/14 08:10:37;;;;;;;36.40;6.38;;;12.60;54.70;;;;;;5029858;28;20913;-72
2023/11/14 08:13:02;;;;;;;31.58;6.47;;;12.60;54.80;;;;;;5021358;28;20396;-72
2023/11/14 08:15:28;;;;;;;33.60;6.63;;;12.70;54.60;;;;;;5010020;28;20936;-73
2023/11/14 08:17:54;;;;;;;29.60;6.50;;;12.80;53.50;;;;;;5010366;28;20472;-74
2023/11/14 08:20:19;;;;;;;26.93;6.17;;;12.90;53.10;;;;;;5010664;28;20468;-74
2023/11/14 08:22:45;;;;;;;24.30;6.13;;;12.90;53.00;;;;;;5010930;28;20444;-74
2023/11/14 08:25:11;;;;;;;30.50;5.90;;;13.00;52.80;;;;;;5021763;28;20379;-74
2023/11/14 08:27:36;;;;;;;22.10;5.45;;;13.10;52.50;;;;;;5030139;28;20752;-73
2023/11/14 08:30:06;;;;;;;35.75;5.70;;;13.10;52.60;;;;;;5029279;28;20886;-72
2023/11/14 08:32:31;;;;;;;28.25;6.35;;;13.00;52.70;;;;;;5028778;28;20850;-72
2023/11/14 08:34:58;;;;;;;23.60;5.80;;;13.20;52.10;;;;;;5029402;28;20411;-71
2023/11/14 08:37:24;;;;;;;31.23;5.75;;;13.20;51.80;;;;;;5009365;28;20436;-71
2023/11/14 08:39:49;;;;;;;31.50;5.90;;;13.20;51.40;;;;;;5015913;28;20492;-71
2023/11/14 08:42:15;;;;;;;21.97;5.53;;;13.20;51.10;;;;;;5028600;28;20446;-72
2023/11/14 08:44:40;;;;;;;28.10;5.80;;;13.20;50.90;;;;;;5030234;28;20858;-72
2023/11/14 08:47:06;;;;;;;22.95;5.30;;;13.10;51.40;;;;;;5031035;28;20391;-72
2023/11/14 08:49:32;;;;;;;26.45;5.30;;;13.20;50.70;;;;;;5035589;28;20395;-72
2023/11/14 08:51:57;;;;;;;41.33;6.75;;;13.20;50.70;;;;;;5028351;28;20392;-72
2023/11/14 08:54:23;;;;;;;28.35;5.78;;;13.20;51.20;;;;;;5014385;28;20791;-72
2023/11/14 08:56:49;;;;;;;29.30;6.00;;;13.20;50.40;;;;;;5014361;28;20705;-72
2023/11/14 08:59:15;;;;;;;31.50;5.90;;;13.30;50.70;;;;;;5014394;28;20759;-72
2023/11/14 09:01:41;;;;;;;33.35;5.82;;;13.50;50.70;;;;;;5014560;28;20381;-71
2023/11/14 09:04:10;;;;;;;26.60;5.23;;;13.60;49.20;;;;;;5013892;28;20483;-72
2023/11/14 09:06:36;;;;;;;28.38;6.47;;;13.80;47.70;;;;;;5013413;28;20396;-72
2023/11/14 09:09:02;;;;;;;23.13;5.30;;;13.80;47.20;;;;;;5014813;28;20733;-72
2023/11/14 09:11:27;;;;;;;26.97;5.77;;;13.80;46.90;;;;;;5013486;28;20451;-72
2023/11/14 09:13:56;;;;;;;30.93;6.10;;;13.70;47.80;;;;;;5013379;28;20433;-71
2023/11/14 09:16:23;;;;;;;28.23;5.45;;;13.60;49.20;;;;;;5013713;28;20388;-72
2023/11/14 09:18:48;;;;;;;31.60;6.05;;;13.50;50.40;;;;;;5013651;28;20391;-72
2023/11/14 09:21:14;;;;;;;23.30;5.37;;;13.40;53.00;;;;;;5014331;28;20385;-71
2023/11/14 09:23:39;;;;;;;31.30;6.00;;;13.40;53.10;;;;;;5013693;28;20840;-71
2023/11/14 09:26:07;;;;;;;25.80;5.10;;;13.40;52.30;;;;;;5013450;28;20392;-71
2023/11/14 09:28:34;;;;;;;28.85;5.60;;;13.50;52.80;;;;;;5019554;28;20390;-71
2023/11/14 09:31:02;;;;;;;38.08;5.63;;;13.60;50.30;;;;;;5027203;28;20392;-71
2023/11/14 09:33:27;;;;;;;36.38;6.50;;;13.60;49.50;;;;;;5013347;28;20432;-73
2023/11/14 09:35:53;;;;;;;38.17;5.68;;;13.60;50.60;;;;;;5013178;28;20867;-71
2023/11/14 09:38:19;;;;;;;21.95;5.20;;;13.70;49.20;;;;;;5012739;28;20385;-72
2023/11/14 09:40:45;;;;;;;32.03;6.07;;;13.80;47.40;;;;;;5013161;28;20886;-71
2023/11/14 09:43:11;;;;;;;29.23;4.88;;;13.80;47.80;;;;;;5012973;28;20531;-71
2023/11/14 09:45:41;;;;;;;29.60;5.70;;;13.80;47.50;;;;;;5011401;28;20708;-69
2023/11/14 09:48:08;;;;;;;36.80;6.07;;;13.80;46.80;;;;;;5012735;28;20389;-71
2023/11/14 09:50:41;;;;;;;27.73;5.53;;;13.80;46.60;;;;;;5013055;28;20423;-70
2023/11/14 09:53:07;;;;;;;30.88;6.15;;;13.80;46.80;;;;;;5012352;28;20875;-70
2023/11/14 09:55:33;;;;;;;27.60;5.20;;;13.70;47.40;;;;;;5012626;28;20388;-71
2023/11/14 09:58:01;;;;;;;31.08;5.97;;;13.60;47.30;;;;;;5012039;28;20747;-70
2023/11/14 10:00:28;;;;;;;23.17;5.88;;;13.60;47.30;;;;;;5011269;28;20385;-70
2023/11/14 10:02:56;;;;;;;32.90;5.40;;;13.60;47.70;;;;;;5012720;28;20508;-70
2023/11/14 10:05:22;;;;;;;31.20;6.60;;;13.60;48.00;;;;;;5012393;28;20396;-71
2023/11/14 10:07:49;;;;;;;32.53;5.97;;;13.70;48.30;;;;;;5012222;28;20384;-70
2023/11/14 10:10:16;;;;;;;32.78;6.20;;;13.70;48.20;;;;;;5012192;28;20464;-71
2023/11/14 10:12:42;;;;;;;26.95;6.93;;;13.80;47.90;;;;;;5012608;28;20593;-71
2023/11/14 10:15:08;;;;;;;30.33;6.20;;;13.80;47.50;;;;;;5012067;28;20950;-70
2023/11/14 10:17:40;;;;;;;33.28;6.65;;;13.80;48.10;;;;;;5012243;28;20875;-70
2023/11/14 10:20:07;;;;;;;31.27;7.07;;;13.80;48.40;;;;;;5014292;28;20395;-71
2023/11/14 10:22:34;;;;;;;29.45;5.75;;;13.80;48.00;;;;;;5012199;28;20806;-71
2023/11/14 10:25:01;;;;;;;33.80;6.60;;;13.80;48.10;;;;;;5012375;28;20899;-69
2023/11/14 10:27:36;;;;;;;24.25;5.75;;;13.80;48.10;;;;;;5013420;28;20393;-70
2023/11/14 10:30:02;;;;;;;35.83;5.97;;;13.90;48.40;;;;;;5030259;28;20396;-70
2023/11/14 10:32:28;;;;;;;32.28;6.78;;;13.90;47.80;;;;;;5031361;28;20402;-71
2023/11/14 10:34:54;;;;;;;25.23;5.72;;;14.10;47.00;;;;;;5031590;28;20406;-70
2023/11/14 10:37:30;;;;;;;29.52;5.75;;;14.40;45.40;;;;;;5019775;28;20776;-72
2023/11/14 10:39:57;;;;;;;23.70;5.20;;;14.60;44.60;;;;;;5012088;28;20983;-73
2023/11/14 10:42:24;;;;;;;29.90;5.93;;;14.70;44.00;;;;;;5024792;28;20387;-71
2023/11/14 10:45:07;;;;;;;29.48;6.43;;;14.70;44.30;;;;;;5031592;28;20925;-72
2023/11/14 10:47:38;;;;;;;21.55;5.32;;;14.60;45.30;;;;;;5028446;28;20464;-72
2023/11/14 10:50:05;;;;;;;29.60;6.10;;;14.70;44.70;;;;;;5032157;28;20757;-72
2023/11/14 10:52:39;;;;;;;23.75;5.70;;;14.60;45.00;;;;;;5020917;28;20838;-72
2023/11/14 10:55:08;;;;;;;33.63;6.50;;;14.60;46.90;;;;;;5030092;28;20439;-72
2023/11/14 10:57:37;;;;;;;24.50;5.22;;;14.50;49.50;;;;;;5031232;28;20394;-71
2023/11/14 11:00:10;;;;;;;22.92;5.07;;;14.40;50.30;;;;;;5031086;28;20414;-71
2023/11/14 11:02:39;;;;;;;26.77;5.30;;;14.30;51.60;;;;;;5022792;28;20401;-71
2023/11/14 11:05:05;;;;;;;28.70;6.45;;;14.10;53.90;;;;;;5031285;28;20383;-70
2023/11/14 11:07:31;;;;;;;24.23;5.40;;;13.90;56.80;;;;;;5030943;28;20967;-70
2023/11/14 11:09:56;;;;;;;17.73;4.97;;;13.70;59.50;;;;;;5028817;28;20462;-70
2023/11/14 11:12:25;;;;;;;21.00;4.30;;;13.60;61.50;;;;;;5030552;28;20393;-70
2023/11/14 11:14:51;;;;;;;19.95;5.13;;;13.40;65.70;;;;;;5031061;28;20399;-70
2023/11/14 11:17:36;;;;;;;21.63;4.90;;;13.20;68.80;;;;;;5031124;28;20746;-70
2023/11/14 11:20:02;;;;;;;22.13;4.85;;;13.10;69.50;;;;;;5030828;28;20383;-70
2023/11/14 11:22:28;;;;;;;25.02;5.10;;;13.00;68.00;;;;;;5030927;28;20450;-71
2023/11/14 11:25:20;;;;;;;24.85;5.65;;;13.00;70.20;;;;;;5030962;28;20526;-71
2023/11/14 11:27:48;;;;;;;19.85;4.97;;;13.00;70.70;;;;;;5030779;28;20897;-71
2023/11/14 11:30:14;;;;;;;27.20;5.38;;;13.10;70.40;;;;;;5030744;28;20383;-71
2023/11/14 11:32:40;;;;;;;27.67;5.17;;;13.10;68.70;;;;;;5030799;28;20391;-71
2023/11/14 11:35:22;;;;;;;32.22;6.35;;;13.20;68.80;;;;;;5030623;28;20482;-71
2023/11/14 11:38:09;;;;;;;29.50;6.90;;;13.30;65.90;;;;;;5030582;28;20462;-71
2023/11/14 11:40:55;;;;;;;30.20;5.88;;;13.20;67.00;;;;;;5030631;28;20383;-71
2023/11/14 11:43:24;;;;;;;25.73;5.97;;;13.30;63.20;;;;;;5030703;28;20758;-71
2023/11/14 11:45:50;;;;;;;23.88;5.80;;;13.40;63.40;;;;;;5030543;28;20481;-71
2023/11/14 11:48:35;;;;;;;20.95;5.03;;;13.50;61.40;;;;;;5030437;28;20387;-71
2023/11/14 11:51:23;;;;;;;30.00;5.70;;;13.50;59.90;;;;;;5030866;28;20734;-71
2023/11/14 11:53:49;;;;;;;22.05;5.18;;;13.60;56.00;;;;;;5029167;28;20403;-71
2023/11/14 11:56:36;;;;;;;23.02;4.60;;;13.60;55.80;;;;;;5030412;28;20481;-70
2023/11/14 11:59:03;;;;;;;20.10;4.55;;;13.70;53.40;;;;;;5030269;28;20850;-70
2023/11/14 12:01:30;;;;;;;15.80;3.90;;;13.70;51.50;;;;;;5030594;28;20422;-70
2023/11/14 12:03:59;;;;;;;22.25;4.68;;;13.80;52.00;;;;;;5030124;28;20386;-71
2023/11/14 12:06:25;;;;;;;19.95;4.65;;;13.80;51.30;;;;;;5030053;28;20404;-71
2023/11/14 12:08:52;;;;;;;19.85;4.50;;;13.80;51.10;;;;;;5030317;28;20391;-72
2023/11/14 12:11:18;;;;;;;15.40;4.30;;;13.80;49.50;;;;;;5030758;28;20821;-72
2023/11/14 12:13:51;;;;;;;14.77;3.97;;;13.80;50.50;;;;;;5029008;28;20407;-71
2023/11/14 12:16:23;;;;;;;12.98;3.40;;;13.90;47.80;;;;;;5030805;28;20584;-71
2023/11/14 12:18:49;;;;;;;16.40;3.45;;;13.90;46.30;;;;;;5030503;28;20415;-70
2023/11/14 12:21:17;;;;;;;10.95;2.90;;;14.00;47.00;;;;;;5031285;28;20417;-72
2023/11/14 12:23:44;;;;;;;14.73;2.70;;;14.00;47.10;;;;;;5032088;28;20488;-70
2023/11/14 12:26:10;;;;;;;10.90;2.60;;;14.00;47.00;;;;;;5033358;28;20402;-70
2023/11/14 12:28:44;;;;;;;13.30;2.92;;;14.00;46.70;;;;;;5031241;28;20754;-71
2023/11/14 12:31:13;;;;;;;10.30;2.45;;;14.00;48.10;;;;;;5014995;28;20522;-69
2023/11/14 12:33:45;;;;;;;14.52;2.70;;;14.10;47.70;;;;;;5018322;28;20498;-71